createdAt,value
2019-03-03T00:02:03.418Z,4.70
2019-03-03T00:04:31.359Z,4.57
2019-03-03T00:06:59.373Z,4.23
2019-03-03T00:09:27.283Z,4.53
2019-03-03T00:11:55.195Z,4.50
2019-03-03T00:14:23.156Z,4.00
2019-03-03T00:16:51.027Z,4.60
2019-03-03T00:19:18.923Z,4.00
2019-03-03T00:21:46.948Z,4.73
2019-03-03T00:24:15.200Z,4.47
2019-03-03T00:26:43.098Z,4.83
2019-03-03T00:29:11.053Z,4.70
2019-03-03T00:31:40.007Z,4.03
2019-03-03T00:34:08.177Z,3.97
2019-03-03T00:36:54.354Z,4.57
2019-03-03T00:39:53.640Z,4.60
2019-03-03T00:42:34.976Z,4.37
2019-03-03T00:45:21.995Z,4.27
2019-03-03T00:48:00.067Z,3.97
2019-03-03T00:50:55.858Z,4.70
2019-03-03T00:54:01.114Z,3.97
2019-03-03T00:56:33.810Z,4.13
2019-03-03T00:59:13.622Z,3.80
2019-03-03T01:01:47.180Z,4.13
2019-03-03T01:04:29.294Z,3.80
2019-03-03T01:07:22.659Z,4.60
2019-03-03T01:10:21.705Z,4.57
2019-03-03T01:13:00.329Z,4.50
2019-03-03T01:15:59.247Z,4.30
2019-03-03T01:18:44.811Z,3.90
2019-03-03T01:21:19.424Z,4.20
2019-03-03T01:23:54.777Z,4.20
2019-03-03T01:26:22.804Z,4.53
2019-03-03T01:28:50.740Z,4.47
2019-03-03T01:31:18.749Z,4.30
2019-03-03T01:33:47.160Z,4.27
2019-03-03T01:36:15.407Z,4.33
2019-03-03T01:38:43.361Z,3.93
2019-03-03T01:41:11.403Z,4.93
2019-03-03T01:43:39.355Z,3.80
2019-03-03T01:46:07.278Z,4.43
2019-03-03T01:48:35.263Z,4.43
2019-03-03T01:51:03.203Z,3.90
2019-03-03T01:53:31.104Z,4.97
2019-03-03T01:55:59.037Z,3.87
2019-03-03T01:58:26.946Z,4.23
2019-03-03T02:00:54.885Z,4.33
2019-03-03T02:03:22.817Z,4.30
2019-03-03T02:05:50.746Z,3.80
2019-03-03T02:08:18.727Z,4.23
2019-03-03T02:10:46.645Z,3.40
2019-03-03T02:13:14.619Z,4.07
2019-03-03T02:15:42.664Z,4.03
2019-03-03T02:18:10.626Z,4.80
2019-03-03T02:20:38.589Z,3.87
2019-03-03T02:23:06.558Z,4.83
2019-03-03T02:25:34.466Z,4.43
2019-03-03T02:28:02.373Z,4.43
2019-03-03T02:30:30.279Z,4.30
2019-03-03T02:32:58.213Z,4.27
2019-03-03T02:35:26.223Z,5.00
2019-03-03T02:37:54.105Z,3.97
2019-03-03T02:40:22.044Z,3.83
2019-03-03T02:42:50.021Z,4.27
2019-03-03T02:45:18.303Z,4.30
2019-03-03T02:47:46.247Z,4.00
2019-03-03T02:50:14.237Z,4.70
2019-03-03T02:52:42.147Z,4.90
2019-03-03T02:55:10.919Z,4.27
2019-03-03T02:57:39.023Z,5.40
2019-03-03T03:00:08.801Z,5.60
2019-03-03T03:02:45.719Z,5.20
2019-03-03T03:05:15.432Z,5.27
2019-03-03T03:07:56.692Z,5.93
2019-03-03T03:10:46.729Z,5.27
2019-03-03T03:13:26.358Z,4.70
2019-03-03T03:16:16.323Z,5.53
2019-03-03T03:19:02.002Z,5.70
2019-03-03T03:21:51.730Z,6.17
2019-03-03T03:24:42.216Z,5.67
2019-03-03T03:27:19.881Z,5.53
2019-03-03T03:30:19.130Z,5.93
2019-03-03T03:32:56.052Z,5.80
2019-03-03T03:35:45.807Z,5.93
2019-03-03T03:38:28.588Z,6.00
2019-03-03T03:41:03.425Z,6.13
2019-03-03T03:43:49.395Z,6.03
2019-03-03T03:46:38.884Z,5.23
2019-03-03T03:49:28.605Z,5.30
2019-03-03T03:52:07.576Z,6.17
2019-03-03T03:54:57.384Z,6.80
2019-03-03T03:57:40.472Z,6.70
2019-03-03T04:00:26.591Z,5.67
2019-03-03T04:03:25.364Z,6.07
2019-03-03T04:06:21.548Z,6.13
2019-03-03T04:08:57.065Z,7.43
2019-03-03T04:11:30.407Z,6.10
2019-03-03T04:14:16.266Z,6.10
2019-03-03T04:17:06.107Z,5.23
2019-03-03T04:19:56.169Z,6.07
2019-03-03T04:22:35.026Z,6.20
2019-03-03T04:25:21.991Z,6.13
2019-03-03T04:28:05.426Z,5.97
2019-03-03T04:31:07.481Z,6.30
2019-03-03T04:34:06.425Z,6.50
2019-03-03T04:36:44.128Z,6.40
2019-03-03T04:39:22.934Z,6.20
2019-03-03T04:42:19.091Z,7.47
2019-03-03T04:45:06.025Z,7.03
2019-03-03T04:48:01.971Z,6.50
2019-03-03T04:50:50.056Z,6.13
2019-03-03T04:53:31.833Z,4.73
2019-03-03T04:56:25.039Z,5.27
2019-03-03T04:59:14.807Z,5.50
2019-03-03T05:02:01.561Z,5.57
2019-03-03T05:04:52.896Z,5.63
2019-03-03T05:07:48.876Z,5.50
2019-03-03T05:10:29.206Z,6.20
2019-03-03T05:13:25.001Z,5.83
2019-03-03T05:16:15.199Z,6.60
2019-03-03T05:19:04.520Z,5.87
2019-03-03T05:21:32.637Z,5.57
2019-03-03T05:24:00.596Z,7.00
2019-03-03T05:26:28.468Z,5.60
2019-03-03T05:28:56.365Z,6.57
2019-03-03T05:31:24.268Z,6.53
2019-03-03T05:33:52.152Z,5.87
2019-03-03T05:36:20.062Z,6.90
2019-03-03T05:38:47.940Z,6.23
2019-03-03T05:41:15.828Z,5.73
2019-03-03T05:43:43.768Z,5.93
2019-03-03T05:46:11.697Z,5.97
2019-03-03T05:48:39.848Z,5.80
2019-03-03T05:51:07.771Z,5.77
2019-03-03T05:53:35.714Z,5.77
2019-03-03T05:56:03.625Z,5.67
2019-03-03T05:58:31.534Z,5.77
2019-03-03T06:00:59.418Z,5.53
2019-03-03T06:03:27.294Z,5.07
2019-03-03T06:05:55.180Z,5.07
2019-03-03T06:08:23.084Z,6.00
2019-03-03T06:10:50.971Z,5.30
2019-03-03T06:13:18.894Z,6.87
2019-03-03T06:15:46.812Z,5.77
2019-03-03T06:18:14.804Z,6.20
2019-03-03T06:20:42.711Z,6.87
2019-03-03T06:23:10.691Z,7.40
2019-03-03T06:25:38.587Z,6.83
2019-03-03T06:28:06.499Z,7.20
2019-03-03T06:30:34.408Z,7.13
2019-03-03T06:33:02.294Z,7.20
2019-03-03T06:35:30.574Z,7.10
2019-03-03T06:37:58.504Z,7.67
2019-03-03T06:40:26.427Z,7.07
2019-03-03T06:42:54.327Z,7.13
2019-03-03T06:45:22.217Z,7.43
2019-03-03T06:47:50.178Z,8.80
2019-03-03T06:50:18.105Z,9.23
2019-03-03T06:52:46.008Z,9.47
2019-03-03T06:55:14.023Z,9.83
2019-03-03T06:57:41.899Z,10.20
2019-03-03T07:00:11.521Z,11.73
2019-03-03T07:02:39.432Z,11.50
2019-03-03T07:05:08.073Z,11.27
2019-03-03T07:07:35.980Z,12.07
2019-03-03T07:10:04.139Z,10.57
2019-03-03T07:12:32.054Z,9.87
2019-03-03T07:14:59.935Z,10.70
2019-03-03T07:17:27.850Z,9.67
2019-03-03T07:19:55.815Z,9.43
2019-03-03T07:22:23.762Z,9.30
2019-03-03T07:24:51.665Z,8.93
2019-03-03T07:27:19.592Z,9.07
2019-03-03T07:29:47.535Z,8.73
2019-03-03T07:32:15.454Z,8.17
2019-03-03T07:34:43.359Z,8.80
2019-03-03T07:37:11.306Z,8.53
2019-03-03T07:39:39.191Z,8.27
2019-03-03T07:42:07.059Z,8.23
2019-03-03T07:44:37.973Z,8.60
2019-03-03T07:47:06.303Z,8.93
2019-03-03T07:49:34.477Z,8.60
2019-03-03T07:52:02.391Z,9.10
2019-03-03T07:54:30.315Z,7.87
2019-03-03T07:56:58.236Z,8.80
2019-03-03T07:59:26.172Z,8.80
2019-03-03T08:01:54.071Z,8.60
2019-03-03T08:04:21.957Z,6.87
2019-03-03T08:06:50.853Z,8.20
2019-03-03T08:09:18.795Z,9.03
2019-03-03T08:11:46.736Z,7.80
2019-03-03T08:14:14.674Z,7.03
2019-03-03T08:16:42.595Z,7.63
2019-03-03T08:19:10.507Z,7.13
2019-03-03T08:21:38.427Z,6.70
2019-03-03T08:24:06.329Z,8.07
2019-03-03T08:26:34.264Z,6.90
2019-03-03T08:29:02.233Z,6.63
2019-03-03T08:31:30.125Z,7.13
2019-03-03T08:33:58.039Z,6.57
2019-03-03T08:36:26.357Z,6.60
2019-03-03T08:38:54.263Z,6.33
2019-03-03T08:41:22.176Z,6.47
2019-03-03T08:44:00.899Z,6.40
2019-03-03T08:46:46.901Z,5.77
2019-03-03T08:49:37.592Z,6.53
2019-03-03T08:52:30.886Z,6.27
2019-03-03T08:55:24.240Z,5.47
2019-03-03T08:58:17.210Z,5.90
2019-03-03T09:00:49.764Z,5.90
2019-03-03T09:03:35.451Z,5.10
2019-03-03T09:06:28.302Z,5.70
2019-03-03T09:09:18.067Z,5.07
2019-03-03T09:12:06.099Z,5.80
2019-03-03T09:14:53.063Z,6.33
2019-03-03T09:17:46.257Z,5.83
2019-03-03T09:20:33.233Z,5.30
2019-03-03T09:23:29.437Z,4.90
2019-03-03T09:26:20.808Z,5.40
2019-03-03T09:28:57.613Z,5.63
2019-03-03T09:31:49.596Z,5.27
2019-03-03T09:34:48.888Z,5.13
2019-03-03T09:38:06.409Z,5.73
2019-03-03T09:40:52.574Z,5.60
2019-03-03T09:43:38.420Z,6.60
2019-03-03T09:46:43.379Z,6.30
2019-03-03T09:49:17.904Z,6.83
2019-03-03T09:52:10.293Z,7.27
2019-03-03T09:55:00.624Z,8.27
2019-03-03T09:57:47.715Z,8.27
2019-03-03T10:00:43.497Z,9.30
2019-03-03T10:03:34.275Z,9.67
2019-03-03T10:06:30.493Z,9.17
2019-03-03T10:09:16.365Z,10.67
2019-03-03T10:12:06.384Z,9.97
2019-03-03T10:14:52.272Z,13.10
2019-03-03T10:17:42.341Z,10.30
2019-03-03T10:20:28.509Z,11.20
2019-03-03T10:23:13.967Z,10.40
2019-03-03T10:25:50.249Z,9.17
2019-03-03T10:28:40.092Z,9.07
2019-03-03T10:31:17.875Z,8.17
2019-03-03T10:33:59.053Z,8.70
2019-03-03T10:36:43.007Z,8.53
2019-03-03T10:39:35.985Z,8.37
2019-03-03T10:42:27.933Z,8.27
2019-03-03T10:45:24.205Z,7.30
2019-03-03T10:48:01.229Z,7.03
2019-03-03T10:50:47.172Z,7.13
2019-03-03T10:53:42.130Z,7.00
2019-03-03T10:56:41.098Z,6.83
2019-03-03T10:59:14.835Z,6.83
2019-03-03T11:02:00.389Z,7.23
2019-03-03T11:04:47.433Z,6.93
2019-03-03T11:07:43.297Z,6.27
2019-03-03T11:10:30.275Z,6.87
2019-03-03T11:13:24.306Z,6.97
2019-03-03T11:16:10.824Z,6.80
2019-03-03T11:18:57.910Z,7.70
2019-03-03T11:21:45.136Z,7.70
2019-03-03T11:24:35.547Z,7.43
2019-03-03T11:27:28.881Z,7.70
2019-03-03T11:30:13.085Z,7.20
2019-03-03T11:32:51.542Z,6.20
2019-03-03T11:35:47.908Z,7.60
2019-03-03T11:38:24.779Z,7.03
2019-03-03T11:41:15.455Z,6.70
2019-03-03T11:43:50.787Z,7.57
2019-03-03T11:46:40.585Z,7.53
2019-03-03T11:49:36.822Z,7.53
2019-03-03T11:52:36.149Z,8.13
2019-03-03T11:55:12.595Z,7.33
2019-03-03T11:57:59.936Z,8.53
2019-03-03T12:00:58.910Z,8.67
2019-03-03T12:03:51.914Z,9.33
2019-03-03T12:06:38.183Z,8.63
2019-03-03T12:09:26.612Z,9.43
2019-03-03T12:12:22.857Z,13.07
2019-03-03T12:15:12.596Z,12.93
2019-03-03T12:18:03.088Z,14.43
2019-03-03T12:20:53.444Z,14.30
2019-03-03T12:23:33.715Z,14.43
2019-03-03T12:26:27.845Z,15.20
2019-03-03T12:29:11.745Z,17.00
2019-03-03T12:31:50.989Z,16.90
2019-03-03T12:34:38.150Z,15.77
2019-03-03T12:37:30.569Z,15.73
2019-03-03T12:40:26.771Z,14.03
2019-03-03T12:43:03.113Z,14.00
2019-03-03T12:45:56.171Z,13.23
2019-03-03T12:48:39.713Z,12.40
2019-03-03T12:51:14.214Z,13.20
2019-03-03T12:53:47.802Z,13.80
2019-03-03T12:56:33.642Z,12.00
2019-03-03T12:59:20.736Z,11.20
2019-03-03T13:02:19.968Z,10.00
2019-03-03T13:05:12.805Z,10.73
2019-03-03T13:07:59.974Z,9.83
2019-03-03T13:10:42.288Z,9.13
2019-03-03T13:13:22.922Z,9.60
2019-03-03T13:16:08.508Z,9.13
2019-03-03T13:18:45.617Z,9.20
2019-03-03T13:21:38.813Z,8.17
2019-03-03T13:24:13.978Z,7.83
2019-03-03T13:26:54.199Z,7.57
2019-03-03T13:29:41.023Z,8.23
2019-03-03T13:32:22.017Z,7.80
2019-03-03T13:35:09.099Z,7.40
2019-03-03T13:37:56.068Z,7.27
2019-03-03T13:40:39.013Z,6.33
2019-03-03T13:43:07.019Z,7.63
2019-03-03T13:45:35.364Z,7.37
2019-03-03T13:48:03.302Z,6.20
2019-03-03T13:50:31.356Z,7.70
2019-03-03T13:52:59.801Z,7.47
2019-03-03T13:55:27.844Z,6.97
2019-03-03T13:57:57.294Z,6.67
2019-03-03T14:00:26.580Z,6.80
2019-03-03T14:02:54.595Z,7.23
2019-03-03T14:05:23.094Z,6.60
2019-03-03T14:07:51.071Z,6.97
2019-03-03T14:10:19.031Z,6.43
2019-03-03T14:12:47.217Z,5.93
2019-03-03T14:15:16.679Z,5.77
2019-03-03T14:17:44.793Z,6.70
2019-03-03T14:20:14.047Z,5.33
2019-03-03T14:22:42.034Z,5.87
2019-03-03T14:25:10.326Z,5.40
2019-03-03T14:27:38.247Z,5.57
2019-03-03T14:30:07.182Z,5.60
2019-03-03T14:32:35.100Z,5.50
2019-03-03T14:35:03.276Z,5.90
2019-03-03T14:37:31.226Z,5.63
2019-03-03T14:39:59.222Z,5.53
2019-03-03T14:42:27.218Z,5.13
2019-03-03T14:44:55.246Z,5.83
2019-03-03T14:47:23.176Z,5.13
2019-03-03T14:49:51.108Z,5.47
2019-03-03T14:52:19.068Z,4.83
2019-03-03T14:54:47.264Z,5.50
2019-03-03T14:57:15.289Z,5.20
2019-03-03T14:59:43.215Z,5.30
2019-03-03T15:02:11.200Z,5.43
2019-03-03T15:04:39.247Z,5.00
2019-03-03T15:07:07.134Z,4.73
2019-03-03T15:09:35.172Z,4.50
2019-03-03T15:12:03.131Z,4.90
2019-03-03T15:14:31.062Z,5.00
2019-03-03T15:16:58.962Z,5.83
2019-03-03T15:19:27.048Z,5.03
2019-03-03T15:21:55.173Z,3.80
2019-03-03T15:24:23.077Z,4.47
2019-03-03T15:26:51.027Z,4.03
2019-03-03T15:29:18.966Z,5.20
2019-03-03T15:31:47.038Z,5.43
2019-03-03T15:34:14.973Z,4.73
2019-03-03T15:36:42.867Z,4.50
2019-03-03T15:39:11.194Z,4.90
2019-03-03T15:41:39.103Z,4.67
2019-03-03T15:44:07.036Z,4.13
2019-03-03T15:46:34.969Z,4.33
2019-03-03T15:49:03.111Z,4.50
2019-03-03T15:51:31.163Z,4.83
2019-03-03T15:53:59.060Z,5.40
2019-03-03T15:56:27.064Z,4.87
2019-03-03T15:58:55.906Z,5.43
2019-03-03T16:01:25.499Z,4.90
2019-03-03T16:03:53.526Z,5.43
2019-03-03T16:06:21.541Z,4.77
2019-03-03T16:08:49.728Z,4.47
2019-03-03T16:11:17.777Z,4.27
2019-03-03T16:13:45.703Z,5.17
2019-03-03T16:16:13.816Z,5.47
2019-03-03T16:18:41.849Z,5.30
2019-03-03T16:21:10.012Z,4.73
2019-03-03T16:23:38.063Z,4.77
2019-03-03T16:26:06.007Z,4.60
2019-03-03T16:28:34.099Z,5.10
2019-03-03T16:31:02.064Z,5.03
2019-03-03T16:33:30.008Z,5.23
2019-03-03T16:35:57.935Z,5.33
2019-03-03T16:38:25.847Z,4.90
2019-03-03T16:40:53.787Z,5.03
2019-03-03T16:43:21.735Z,4.23
2019-03-03T16:45:49.757Z,4.97
2019-03-03T16:48:17.825Z,4.43
2019-03-03T16:50:46.332Z,4.27
2019-03-03T16:53:15.500Z,5.07
2019-03-03T16:55:43.526Z,4.83
2019-03-03T16:58:11.464Z,5.17
2019-03-03T17:00:39.937Z,4.90
2019-03-03T17:03:07.933Z,5.27
2019-03-03T17:05:35.961Z,4.70
2019-03-03T17:08:03.901Z,4.23
2019-03-03T17:10:31.810Z,4.83
2019-03-03T17:12:59.719Z,4.30
2019-03-03T17:15:27.628Z,4.20
2019-03-03T17:17:55.554Z,5.37
2019-03-03T17:20:23.476Z,4.90
2019-03-03T17:22:51.408Z,4.60
2019-03-03T17:25:20.068Z,5.57
2019-03-03T17:27:47.986Z,4.50
2019-03-03T17:30:17.524Z,4.93
2019-03-03T17:32:45.409Z,4.90
2019-03-03T17:35:13.816Z,4.37
2019-03-03T17:37:41.883Z,5.17
2019-03-03T17:40:10.963Z,4.70
2019-03-03T17:42:38.926Z,5.30
2019-03-03T17:45:08.237Z,4.80
2019-03-03T17:47:36.131Z,4.47
2019-03-03T17:50:04.235Z,5.37
2019-03-03T17:52:32.199Z,5.13
2019-03-03T17:55:00.219Z,5.37
2019-03-03T17:57:28.361Z,4.17
2019-03-03T17:59:56.305Z,5.33
2019-03-03T18:02:24.265Z,5.50
2019-03-03T18:04:52.281Z,5.30
2019-03-03T18:07:20.191Z,5.33
2019-03-03T18:09:48.206Z,5.87
2019-03-03T18:12:16.208Z,5.63
2019-03-03T18:14:44.141Z,4.47
2019-03-03T18:17:12.110Z,5.47
2019-03-03T18:19:40.019Z,4.90
2019-03-03T18:22:07.939Z,5.20
2019-03-03T18:24:35.863Z,5.77
2019-03-03T18:27:03.835Z,5.40
2019-03-03T18:29:31.752Z,5.50
2019-03-03T18:31:59.714Z,5.13
2019-03-03T18:34:27.611Z,5.30
2019-03-03T18:36:55.645Z,4.77
2019-03-03T18:39:23.529Z,5.20
2019-03-03T18:41:51.424Z,5.07
2019-03-03T18:44:19.415Z,4.63
2019-03-03T18:46:47.293Z,4.47
2019-03-03T18:49:15.225Z,4.60
2019-03-03T18:51:43.216Z,4.80
2019-03-03T18:54:11.156Z,4.80
2019-03-03T18:56:39.106Z,4.03
2019-03-03T18:59:07.801Z,4.57
2019-03-03T19:01:36.240Z,3.90
2019-03-03T19:04:04.261Z,4.13
2019-03-03T19:06:32.217Z,4.60
2019-03-03T19:09:00.162Z,4.17
2019-03-03T19:11:28.258Z,3.97
2019-03-03T19:13:56.275Z,4.40
2019-03-03T19:16:26.096Z,4.07
2019-03-03T19:18:54.067Z,4.50
2019-03-03T19:21:22.019Z,4.13
2019-03-03T19:23:50.032Z,4.83
2019-03-03T19:26:19.033Z,4.13
2019-03-03T19:28:47.184Z,4.10
2019-03-03T19:31:15.247Z,3.90
2019-03-03T19:33:44.759Z,4.17
2019-03-03T19:36:12.752Z,4.13
2019-03-03T19:38:41.227Z,3.27
2019-03-03T19:41:09.245Z,4.20
2019-03-03T19:43:37.568Z,3.40
2019-03-03T19:46:05.615Z,3.03
2019-03-03T19:48:35.851Z,2.90
2019-03-03T19:51:03.397Z,3.43
2019-03-03T19:53:31.433Z,3.17
2019-03-03T19:56:01.062Z,3.10
2019-03-03T19:58:28.981Z,3.47
2019-03-03T20:00:57.001Z,3.70
2019-03-03T20:03:25.335Z,3.50
2019-03-03T20:05:53.583Z,3.50
2019-03-03T20:08:21.700Z,3.50
2019-03-03T20:10:49.663Z,3.30
2019-03-03T20:13:17.589Z,3.20
2019-03-03T20:15:45.591Z,3.40
2019-03-03T20:18:13.513Z,3.40
2019-03-03T20:20:41.485Z,2.77
2019-03-03T20:23:09.458Z,2.93
2019-03-03T20:25:37.577Z,3.30
2019-03-03T20:28:05.834Z,2.83
2019-03-03T20:30:33.895Z,2.70
2019-03-03T20:33:01.813Z,2.40
2019-03-03T20:35:29.724Z,2.77
2019-03-03T20:37:57.962Z,2.90
2019-03-03T20:40:26.037Z,2.70
2019-03-03T20:42:54.146Z,2.80
2019-03-03T20:45:22.520Z,3.13
2019-03-03T20:47:50.683Z,3.07
2019-03-03T20:50:19.224Z,3.00
2019-03-03T20:52:47.259Z,2.70
2019-03-03T20:55:15.745Z,2.43
2019-03-03T20:57:43.806Z,2.80
2019-03-03T21:00:12.933Z,2.97
2019-03-03T21:02:40.860Z,3.37
2019-03-03T21:05:08.761Z,2.67
2019-03-03T21:07:36.665Z,2.37
2019-03-03T21:10:05.114Z,2.93
2019-03-03T21:12:33.523Z,2.80
2019-03-03T21:15:01.540Z,2.27
2019-03-03T21:17:29.428Z,2.67
2019-03-03T21:19:57.331Z,2.60
2019-03-03T21:22:25.291Z,2.67
2019-03-03T21:24:53.188Z,2.70
2019-03-03T21:27:21.075Z,2.27
2019-03-03T21:29:49.095Z,3.60
2019-03-03T21:32:17.033Z,2.90
2019-03-03T21:34:45.061Z,3.13
2019-03-03T21:37:12.976Z,2.53
2019-03-03T21:39:41.023Z,2.80
2019-03-03T21:42:08.933Z,2.87
2019-03-03T21:44:36.864Z,2.63
2019-03-03T21:47:04.785Z,2.53
2019-03-03T21:49:32.817Z,2.50
2019-03-03T21:52:01.419Z,2.90
2019-03-03T21:54:29.533Z,2.63
2019-03-03T21:56:57.424Z,2.60
2019-03-03T21:59:28.761Z,2.53
2019-03-03T22:01:56.834Z,2.63
2019-03-03T22:04:24.797Z,2.70
2019-03-03T22:06:52.683Z,2.80
2019-03-03T22:09:20.644Z,2.97
2019-03-03T22:11:48.659Z,2.60
2019-03-03T22:14:16.560Z,2.70
2019-03-03T22:16:44.652Z,2.90
2019-03-03T22:19:12.617Z,2.47
2019-03-03T22:21:40.603Z,2.93
2019-03-03T22:24:08.779Z,2.53
2019-03-03T22:26:36.783Z,2.60
2019-03-03T22:29:04.742Z,2.30
2019-03-03T22:31:32.680Z,2.37
2019-03-03T22:34:01.004Z,2.10
2019-03-03T22:36:28.976Z,2.93
2019-03-03T22:38:56.993Z,2.57
2019-03-03T22:41:25.051Z,2.77
2019-03-03T22:43:52.954Z,2.50
2019-03-03T22:46:20.867Z,2.30
2019-03-03T22:48:48.939Z,2.43
2019-03-03T22:51:16.822Z,2.73
2019-03-03T22:53:44.713Z,2.30
2019-03-03T22:56:12.676Z,2.40
2019-03-03T22:58:40.638Z,2.70
2019-03-03T23:01:14.571Z,2.73
2019-03-03T23:03:47.733Z,2.60
2019-03-03T23:06:34.992Z,2.20
2019-03-03T23:09:21.988Z,2.23
2019-03-03T23:11:55.840Z,2.60
2019-03-03T23:14:29.707Z,2.37
2019-03-03T23:17:10.707Z,2.40
2019-03-03T23:19:56.751Z,2.23
2019-03-03T23:22:59.200Z,2.23
2019-03-03T23:25:58.563Z,2.63
2019-03-03T23:28:26.435Z,2.47
2019-03-03T23:30:54.993Z,2.70
2019-03-03T23:33:22.879Z,2.50
2019-03-03T23:35:50.816Z,2.50
2019-03-03T23:38:18.824Z,2.63
2019-03-03T23:40:46.780Z,2.27
2019-03-03T23:43:14.874Z,3.23
2019-03-03T23:45:42.904Z,2.30
2019-03-03T23:48:10.879Z,3.00
2019-03-03T23:50:39.196Z,2.13
2019-03-03T23:53:07.261Z,2.60
2019-03-03T23:55:35.197Z,2.30
2019-03-03T23:58:03.162Z,2.43
